KESWICK RESERVOIR (KES)

Elevation: 596' · SACRAMENTO R basin · Operator: US Bureau of Reclamation

Provisional data, subject to change.
Query executed Sunday at 22:21:52   clock

Select a sensor type for a plot of data.
Note: Reservoir Flows are daily averages.

Earlier

Date RES ELE    STORAGE    RES CHG    OUTFLOW    INFLOW   
 FEET   AF   AF   CFS   CFS  
03/01/2015 577.68 18236 -1882 3063 2116
03/02/2015 576.67 17691 -545 3064 2791
03/03/2015 577.98 18399 708 3093 3452
03/04/2015 578.77 18835 436 3059 3280
03/05/2015 580.42 19766 931 3061 3533
03/06/2015 579.67 19339 -427 3063 2850
03/07/2015 579.36 19164 -175 3062 2977
03/08/2015 577.03 17883 -1281 3062 2418
03/09/2015 578.06 18443 560 3063 3347
03/10/2015 577.24 17997 -446 3052 2830
03/11/2015 579.13 19035 1038 3092 3616
03/12/2015 580.13 19599 564 3121 3406
03/13/2015 580.39 19749 150 3119 3196
03/14/2015 580.90 20042 293 3120 3271
03/15/2015 581.64 20475 433 3118 3337
03/16/2015 578.08 18454 -2021 3105 2086
03/17/2015 578.91 18912 458 3099 3330
03/18/2015 579.81 19417 505 3105 3362
03/19/2015 579.15 19046 -371 3101 2916
03/20/2015 580.22 19651 605 3013 3320
03/21/2015 580.32 19708 57 3017 3050
03/22/2015 578.87 18890 -818 3016 2606
03/23/2015 579.16 19052 162 3016 3099
03/24/2015 580.47 19795 743 2930 3306
03/25/2015 581.19 20211 416 2750 2961
03/26/2015 583.00 21283 1072 2738 3279
03/27/2015 583.56 21623 340 2733 2906
03/28/2015 584.94 22470 847 2732 3166
03/29/2015 -- -- -- -- --

Later | Latest

Warning! This data is preliminary and subject to revision.

Show KES Map | Plot KES Data | 1 Month KES Data | Real-Time KES Data | KES Info